createdAt,value
2018-05-11T00:01:24.587Z,6.30
2018-05-11T00:03:52.709Z,6.25
2018-05-11T00:06:20.813Z,5.60
2018-05-11T00:08:48.956Z,5.30
2018-05-11T00:11:17.071Z,6.00
2018-05-11T00:13:45.191Z,4.97
2018-05-11T00:16:13.316Z,5.60
2018-05-11T00:18:41.421Z,6.12
2018-05-11T00:21:10.282Z,5.60
2018-05-11T00:23:38.425Z,5.95
2018-05-11T00:26:06.532Z,6.30
2018-05-11T00:28:34.642Z,6.80
2018-05-11T00:31:03.523Z,6.62
2018-05-11T00:33:31.619Z,6.35
2018-05-11T00:36:00.503Z,7.32
2018-05-11T00:38:29.368Z,6.65
2018-05-11T00:40:57.514Z,6.53
2018-05-11T00:43:25.612Z,6.57
2018-05-11T00:45:53.728Z,6.57
2018-05-11T00:48:22.622Z,8.93
2018-05-11T00:50:51.485Z,7.47
2018-05-11T00:53:19.621Z,7.05
2018-05-11T00:55:51.525Z,7.35
2018-05-11T00:58:19.663Z,6.75
2018-05-11T01:00:47.764Z,7.30
2018-05-11T01:03:15.944Z,7.00
2018-05-11T01:05:44.010Z,6.50
2018-05-11T01:08:12.110Z,6.97
2018-05-11T01:10:40.249Z,8.05
2018-05-11T01:13:08.362Z,7.72
2018-05-11T01:15:36.602Z,7.93
2018-05-11T01:18:04.752Z,7.53
2018-05-11T01:20:32.882Z,8.18
2018-05-11T01:23:00.996Z,8.13
2018-05-11T01:25:29.109Z,7.87
2018-05-11T01:27:57.213Z,6.95
2018-05-11T01:30:25.348Z,7.82
2018-05-11T01:32:54.225Z,7.43
2018-05-11T01:35:22.343Z,6.62
2018-05-11T01:37:50.457Z,6.53
2018-05-11T01:40:18.562Z,6.45
2018-05-11T01:42:47.490Z,7.25
2018-05-11T01:45:15.598Z,6.85
2018-05-11T01:47:43.745Z,6.57
2018-05-11T01:50:11.858Z,8.60
2018-05-11T01:52:39.972Z,6.82
2018-05-11T01:55:08.871Z,5.57
2018-05-11T01:57:37.752Z,4.90
2018-05-11T02:00:05.894Z,4.32
2018-05-11T02:02:34.014Z,4.70
2018-05-11T02:05:02.902Z,5.35
2018-05-11T02:07:31.043Z,4.80
2018-05-11T02:09:59.205Z,6.35
2018-05-11T02:12:27.349Z,5.43
2018-05-11T02:14:56.225Z,6.45
2018-05-11T02:17:24.325Z,5.30
2018-05-11T02:19:53.206Z,4.55
2018-05-11T02:22:22.090Z,5.57
2018-05-11T02:24:50.235Z,6.12
2018-05-11T02:27:18.345Z,5.53
2018-05-11T02:29:46.454Z,6.47
2018-05-11T02:32:14.597Z,5.82
2018-05-11T02:34:42.701Z,5.87
2018-05-11T02:37:11.568Z,6.05
2018-05-11T02:39:39.725Z,5.87
2018-05-11T02:42:08.598Z,6.78
2018-05-11T02:44:36.705Z,6.32
2018-05-11T02:47:05.614Z,8.15
2018-05-11T02:49:33.722Z,6.45
2018-05-11T02:52:01.853Z,7.18
2018-05-11T02:54:29.979Z,5.90
2018-05-11T02:56:58.853Z,6.85
2018-05-11T02:59:27.755Z,5.62
2018-05-11T03:01:56.644Z,5.70
2018-05-11T03:04:25.558Z,5.57
2018-05-11T03:06:53.646Z,6.35
2018-05-11T03:09:21.753Z,6.32
2018-05-11T03:11:49.949Z,5.95
2018-05-11T03:14:18.066Z,6.53
2018-05-11T03:16:46.948Z,7.20
2018-05-11T03:19:15.830Z,5.72
2018-05-11T03:21:43.941Z,6.22
2018-05-11T03:24:12.086Z,5.97
2018-05-11T03:26:40.195Z,6.28
2018-05-11T03:29:08.303Z,5.78
2018-05-11T03:31:36.412Z,5.82
2018-05-11T03:34:04.518Z,5.35
2018-05-11T03:36:32.657Z,4.75
2018-05-11T03:39:00.760Z,6.53
2018-05-11T03:41:29.642Z,5.50
2018-05-11T03:43:57.784Z,6.03
2018-05-11T03:46:25.888Z,5.00
2018-05-11T03:48:53.999Z,5.07
2018-05-11T03:51:22.888Z,5.28
2018-05-11T03:53:51.765Z,5.37
2018-05-11T03:56:19.906Z,5.50
2018-05-11T03:58:48.014Z,5.70
2018-05-11T04:01:33.918Z,5.85
2018-05-11T04:04:20.634Z,6.32
2018-05-11T04:07:06.755Z,5.97
2018-05-11T04:09:34.887Z,5.45
2018-05-11T04:12:03.763Z,6.05
2018-05-11T04:14:32.652Z,6.90
2018-05-11T04:17:00.755Z,5.95
2018-05-11T04:19:29.654Z,5.50
2018-05-11T04:21:58.530Z,6.07
2018-05-11T04:24:27.403Z,6.03
2018-05-11T04:26:55.522Z,6.82
2018-05-11T04:29:23.626Z,6.22
2018-05-11T04:31:51.802Z,5.75
2018-05-11T04:34:19.907Z,6.53
2018-05-11T04:36:48.047Z,5.75
2018-05-11T04:39:16.150Z,6.47
2018-05-11T04:41:44.256Z,5.30
2018-05-11T04:44:12.372Z,5.90
2018-05-11T04:46:40.492Z,6.87
2018-05-11T04:49:08.634Z,5.57
2018-05-11T04:51:36.737Z,6.47
2018-05-11T04:54:04.838Z,7.22
2018-05-11T04:56:32.962Z,6.25
2018-05-11T04:59:01.054Z,6.80
2018-05-11T05:01:29.196Z,7.60
2018-05-11T05:03:57.310Z,6.30
2018-05-11T05:06:25.426Z,5.50
2018-05-11T05:08:53.589Z,5.22
2018-05-11T05:11:21.694Z,6.18
2018-05-11T05:13:50.562Z,6.07
2018-05-11T05:16:18.704Z,6.15
2018-05-11T05:18:46.835Z,7.30
2018-05-11T05:21:15.721Z,7.10
2018-05-11T05:23:43.843Z,7.70
2018-05-11T05:26:11.966Z,5.72
2018-05-11T05:28:40.123Z,6.55
2018-05-11T05:31:08.228Z,5.75
2018-05-11T05:33:36.346Z,5.32
2018-05-11T05:36:04.475Z,5.12
2018-05-11T05:38:32.595Z,6.50
2018-05-11T05:41:00.744Z,8.07
2018-05-11T05:43:28.859Z,7.72
2018-05-11T05:45:57.061Z,7.00
2018-05-11T05:48:25.104Z,5.68
2018-05-11T05:50:53.989Z,6.72
2018-05-11T05:53:22.896Z,5.35
2018-05-11T05:55:51.006Z,5.72
2018-05-11T05:58:19.127Z,6.95
2018-05-11T06:00:47.245Z,8.00
2018-05-11T06:03:15.363Z,6.15
2018-05-11T06:05:43.504Z,5.80
2018-05-11T06:08:11.696Z,5.75
2018-05-11T06:10:40.522Z,7.95
2018-05-11T06:13:08.667Z,5.70
2018-05-11T06:15:36.997Z,5.95
2018-05-11T06:18:05.061Z,7.03
2018-05-11T06:20:33.194Z,6.78
2018-05-11T06:23:01.309Z,8.82
2018-05-11T06:25:29.498Z,7.40
2018-05-11T06:27:57.611Z,6.18
2018-05-11T06:30:25.721Z,6.30
2018-05-11T06:32:53.861Z,6.10
2018-05-11T06:35:21.973Z,8.35
2018-05-11T06:37:50.117Z,7.32
2018-05-11T06:40:18.255Z,6.20
2018-05-11T06:42:46.381Z,8.82
2018-05-11T06:45:14.513Z,6.03
2018-05-11T06:47:42.633Z,5.97
2018-05-11T06:50:10.779Z,6.70
2018-05-11T06:52:39.673Z,7.00
2018-05-11T06:55:08.553Z,7.07
2018-05-11T06:57:36.680Z,5.25
2018-05-11T07:00:04.790Z,8.73
2018-05-11T07:02:32.951Z,8.00
2018-05-11T07:05:01.064Z,9.38
2018-05-11T07:07:29.227Z,8.65
2018-05-11T07:09:58.102Z,6.57
2018-05-11T07:12:26.234Z,7.90
2018-05-11T07:14:55.190Z,11.18
2018-05-11T07:17:23.302Z,7.57
2018-05-11T07:19:52.199Z,6.93
2018-05-11T07:22:21.093Z,7.35
2018-05-11T07:24:50.049Z,7.10
2018-05-11T07:27:18.181Z,8.50
2018-05-11T07:29:46.297Z,7.65
2018-05-11T07:32:14.415Z,6.95
2018-05-11T07:34:43.301Z,7.53
2018-05-11T07:37:11.411Z,7.90
2018-05-11T07:39:39.556Z,8.15
2018-05-11T07:42:07.666Z,6.43
2018-05-11T07:44:35.783Z,7.87
2018-05-11T07:47:04.667Z,8.93
2018-05-11T07:49:32.829Z,6.18
2018-05-11T07:52:00.970Z,6.60
2018-05-11T07:54:29.957Z,8.10
2018-05-11T07:56:58.904Z,8.55
2018-05-11T07:59:27.314Z,8.55
2018-05-11T08:01:55.479Z,7.28
2018-05-11T08:04:23.610Z,8.52
2018-05-11T08:09:24.018Z,10.70
2018-05-11T08:11:52.113Z,8.48
2018-05-11T08:14:20.263Z,6.87
2018-05-11T08:16:48.381Z,9.07
2018-05-11T08:19:16.546Z,10.27
2018-05-11T08:21:44.686Z,10.40
2018-05-11T08:24:12.808Z,10.98
2018-05-11T08:26:41.218Z,8.93
2018-05-11T08:29:10.116Z,7.72
2018-05-11T08:31:38.233Z,9.07
2018-05-11T08:34:06.376Z,9.32
2018-05-11T08:36:34.531Z,7.80
2018-05-11T08:39:02.729Z,7.55
2018-05-11T08:41:30.838Z,8.18
2018-05-11T08:43:59.001Z,9.88
2018-05-11T08:46:27.184Z,10.68
2018-05-11T08:48:55.270Z,9.75
2018-05-11T08:51:23.404Z,9.15
2018-05-11T08:53:52.324Z,9.75
2018-05-11T08:56:20.436Z,7.95
2018-05-11T08:58:48.569Z,10.95
2018-05-11T09:01:16.674Z,9.63
2018-05-11T09:03:44.787Z,9.25
2018-05-11T09:06:12.899Z,9.15
2018-05-11T09:08:41.086Z,9.35
2018-05-11T09:11:09.153Z,8.68
2018-05-11T09:13:37.269Z,9.77
2018-05-11T09:16:05.379Z,10.90
2018-05-11T09:18:33.504Z,7.07
2018-05-11T09:21:01.619Z,7.53
2018-05-11T09:23:29.743Z,9.63
2018-05-11T09:25:57.889Z,8.90
2018-05-11T09:28:26.106Z,9.05
2018-05-11T09:30:54.225Z,8.75
2018-05-11T09:33:22.368Z,8.00
2018-05-11T09:35:50.566Z,10.10
2018-05-11T09:38:19.397Z,8.85
2018-05-11T09:40:47.517Z,7.28
2018-05-11T09:43:15.643Z,6.68
2018-05-11T09:45:43.752Z,6.18
2018-05-11T09:48:12.640Z,7.25
2018-05-11T09:50:41.523Z,8.05
2018-05-11T09:53:10.416Z,6.80
2018-05-11T09:55:38.534Z,6.25
2018-05-11T09:58:06.658Z,7.07
2018-05-11T10:00:34.792Z,7.00
2018-05-11T10:03:02.913Z,8.95
2018-05-11T10:05:31.073Z,7.20
2018-05-11T10:07:59.193Z,8.43
2018-05-11T10:10:28.098Z,8.30
2018-05-11T10:12:56.231Z,6.95
2018-05-11T10:15:24.365Z,8.02
2018-05-11T10:17:52.522Z,7.20
2018-05-11T10:20:21.409Z,8.50
2018-05-11T10:22:50.286Z,7.43
2018-05-11T10:25:18.426Z,8.73
2018-05-11T10:27:46.559Z,10.77
2018-05-11T10:30:15.449Z,8.65
2018-05-11T10:32:43.573Z,7.87
2018-05-11T10:35:11.765Z,7.37
2018-05-11T10:37:39.879Z,6.40
2018-05-11T10:40:08.003Z,6.20
2018-05-11T10:42:36.140Z,7.07
2018-05-11T10:45:05.026Z,7.95
2018-05-11T10:47:33.927Z,6.78
2018-05-11T10:50:02.814Z,5.93
2018-05-11T10:52:30.940Z,6.03
2018-05-11T10:54:59.054Z,7.65
2018-05-11T10:57:27.168Z,5.85
2018-05-11T10:59:56.066Z,7.03
2018-05-11T11:02:24.189Z,7.75
2018-05-11T11:04:52.313Z,7.37
2018-05-11T11:07:21.200Z,7.28
2018-05-11T11:09:50.075Z,5.95
2018-05-11T11:12:18.256Z,7.85
2018-05-11T11:14:46.369Z,7.68
2018-05-11T11:17:14.478Z,6.72
2018-05-11T11:19:42.688Z,6.53
2018-05-11T11:22:10.810Z,10.77
2018-05-11T11:24:38.919Z,7.25
2018-05-11T11:27:07.055Z,8.75
2018-05-11T11:29:35.234Z,8.40
2018-05-11T11:32:03.370Z,8.13
2018-05-11T11:34:32.133Z,7.90
2018-05-11T11:37:00.244Z,9.90
2018-05-11T11:39:28.382Z,8.07
2018-05-11T11:41:56.523Z,8.07
2018-05-11T11:44:25.446Z,8.35
2018-05-11T11:46:53.557Z,9.88
2018-05-11T11:49:21.667Z,8.63
2018-05-11T11:51:50.575Z,8.35
2018-05-11T11:54:19.449Z,10.05
2018-05-11T11:56:47.583Z,8.60
2018-05-11T11:59:15.713Z,9.73
2018-05-11T12:01:44.612Z,10.55
2018-05-11T12:04:13.526Z,11.00
2018-05-11T12:06:41.647Z,10.55
2018-05-11T12:09:10.578Z,10.38
2018-05-11T12:11:38.757Z,11.60
2018-05-11T12:14:07.706Z,11.50
2018-05-11T12:16:35.840Z,12.80
2018-05-11T12:19:04.000Z,13.95
2018-05-11T12:21:32.116Z,12.63
2018-05-11T12:24:00.230Z,12.37
2018-05-11T12:26:28.479Z,13.35
2018-05-11T12:28:56.533Z,11.48
2018-05-11T12:31:24.667Z,11.93
2018-05-11T12:33:52.812Z,12.25
2018-05-11T12:36:20.939Z,12.68
2018-05-11T12:38:49.100Z,13.60
2018-05-11T12:41:17.213Z,12.63
2018-05-11T12:43:46.093Z,13.60
2018-05-11T12:46:14.989Z,13.52
2018-05-11T12:48:43.919Z,13.88
2018-05-11T12:51:12.051Z,12.93
2018-05-11T12:53:40.185Z,13.48
2018-05-11T12:56:08.299Z,14.77
2018-05-11T12:58:36.433Z,14.00
2018-05-11T13:01:04.549Z,15.60
2018-05-11T13:03:32.670Z,14.27
2018-05-11T13:06:00.800Z,16.70
2018-05-11T13:08:28.911Z,16.37
2018-05-11T13:10:57.801Z,14.57
2018-05-11T13:13:26.690Z,16.20
2018-05-11T13:15:54.817Z,15.93
2018-05-11T13:18:22.945Z,15.15
2018-05-11T13:20:51.105Z,13.77
2018-05-11T13:23:19.205Z,14.52
2018-05-11T13:25:48.109Z,16.90
2018-05-11T13:28:16.980Z,17.12
2018-05-11T13:30:45.269Z,18.17
2018-05-11T13:33:13.346Z,16.02
2018-05-11T13:35:41.458Z,15.73
2018-05-11T13:38:09.593Z,18.10
2018-05-11T13:40:37.723Z,16.95
2018-05-11T13:43:05.831Z,18.02
2018-05-11T13:45:33.969Z,19.30
2018-05-11T13:48:02.070Z,18.52
2018-05-11T13:50:30.197Z,17.37
2018-05-11T13:52:59.566Z,16.75
2018-05-11T13:55:27.673Z,17.02
2018-05-11T13:57:55.807Z,18.30
2018-05-11T14:00:23.916Z,19.58
2018-05-11T14:02:52.052Z,17.62
2018-05-11T14:05:20.190Z,16.42
2018-05-11T14:07:49.069Z,15.60
2018-05-11T14:10:17.296Z,14.95
2018-05-11T14:12:46.118Z,14.45
2018-05-11T14:15:14.228Z,13.23
2018-05-11T14:17:43.207Z,15.18
2018-05-11T14:20:11.265Z,14.45
2018-05-11T14:22:39.382Z,13.55
2018-05-11T14:25:08.294Z,15.38
2018-05-11T14:27:36.416Z,14.73
2018-05-11T14:30:04.537Z,19.02
2018-05-11T14:32:33.445Z,26.27
2018-05-11T14:35:01.549Z,18.58
2018-05-11T14:37:29.694Z,17.52
2018-05-11T14:39:57.822Z,16.17
2018-05-11T14:42:25.936Z,15.15
2018-05-11T14:44:54.834Z,15.48
2018-05-11T14:47:23.718Z,14.50
2018-05-11T14:49:51.841Z,14.20
2018-05-11T14:52:19.971Z,14.60
2018-05-11T14:54:48.874Z,13.70
2018-05-11T14:57:17.770Z,15.13
2018-05-11T14:59:46.692Z,16.55
2018-05-11T15:02:14.810Z,13.45
2018-05-11T15:04:42.961Z,14.65
2018-05-11T15:07:11.073Z,14.63
2018-05-11T15:09:39.183Z,15.93
2018-05-11T15:12:08.101Z,13.85
2018-05-11T15:14:36.215Z,13.65
2018-05-11T15:17:04.348Z,13.45
2018-05-11T15:19:32.477Z,13.35
2018-05-11T15:22:00.593Z,14.52
2018-05-11T15:24:28.737Z,13.18
2018-05-11T15:26:56.839Z,12.60
2018-05-11T15:29:25.737Z,13.18
2018-05-11T15:31:54.641Z,12.80
2018-05-11T15:34:22.760Z,13.77
2018-05-11T15:36:50.894Z,13.90
2018-05-11T15:39:19.085Z,12.13
2018-05-11T15:41:47.197Z,13.02
2018-05-11T15:44:15.310Z,13.40
2018-05-11T15:46:44.260Z,13.43
2018-05-11T15:49:12.372Z,12.75
2018-05-11T15:51:40.476Z,12.37
2018-05-11T15:54:09.383Z,11.90
2018-05-11T15:56:37.490Z,12.90
2018-05-11T15:59:05.726Z,11.15
2018-05-11T16:01:33.853Z,13.52
2018-05-11T16:04:01.978Z,12.37
2018-05-11T16:06:30.863Z,11.45
2018-05-11T16:08:59.766Z,10.85
2018-05-11T16:11:28.670Z,12.57
2018-05-11T16:13:56.783Z,11.60
2018-05-11T16:16:24.905Z,11.23
2018-05-11T16:18:53.781Z,10.82
2018-05-11T16:21:21.889Z,10.65
2018-05-11T16:23:50.812Z,11.50
2018-05-11T16:26:18.923Z,10.32
2018-05-11T16:28:47.026Z,10.00
2018-05-11T16:31:15.903Z,9.82
2018-05-11T16:33:44.023Z,10.18
2018-05-11T16:36:12.157Z,8.85
2018-05-11T16:38:40.278Z,9.70
2018-05-11T16:41:08.393Z,13.50
2018-05-11T16:43:37.290Z,9.23
2018-05-11T16:46:05.402Z,9.20
2018-05-11T16:48:34.278Z,9.35
2018-05-11T16:51:02.447Z,8.98
2018-05-11T16:53:30.523Z,9.35
2018-05-11T16:55:58.657Z,9.60
2018-05-11T16:58:26.771Z,11.00
2018-05-11T17:00:54.881Z,10.55
2018-05-11T17:03:23.849Z,11.25
2018-05-11T17:05:51.998Z,8.80
2018-05-11T17:08:20.097Z,9.25
2018-05-11T17:10:48.229Z,9.93
2018-05-11T17:13:16.321Z,8.75
2018-05-11T17:15:44.458Z,9.48
2018-05-11T17:18:12.578Z,8.68
2018-05-11T17:20:40.696Z,9.48
2018-05-11T17:23:08.800Z,8.13
2018-05-11T17:25:37.678Z,8.90
2018-05-11T17:28:05.790Z,8.88
2018-05-11T17:30:33.900Z,10.02
2018-05-11T17:33:02.774Z,8.73
2018-05-11T17:35:30.905Z,8.60
2018-05-11T17:37:59.024Z,8.10
2018-05-11T17:40:27.143Z,8.73
2018-05-11T17:42:55.267Z,7.93
2018-05-11T17:45:23.369Z,7.55
2018-05-11T17:47:51.477Z,8.90
2018-05-11T17:50:19.609Z,8.32
2018-05-11T17:52:48.502Z,7.80
2018-05-11T17:55:16.613Z,7.57
2018-05-11T17:57:44.729Z,9.15
2018-05-11T18:00:13.622Z,8.15
2018-05-11T18:02:41.747Z,8.43
2018-05-11T18:05:09.874Z,7.35
2018-05-11T18:07:37.991Z,8.80
2018-05-11T18:10:06.106Z,9.85
2018-05-11T18:12:34.230Z,8.40
2018-05-11T18:15:02.347Z,9.55
2018-05-11T18:17:30.465Z,8.48
2018-05-11T18:19:58.589Z,8.77
2018-05-11T18:22:26.720Z,7.72
2018-05-11T18:24:55.593Z,7.70
2018-05-11T18:27:23.727Z,7.95
2018-05-11T18:29:51.917Z,8.27
2018-05-11T18:32:20.039Z,7.22
2018-05-11T18:34:48.180Z,7.32
2018-05-11T18:37:17.089Z,7.30
2018-05-11T18:39:45.304Z,7.32
2018-05-11T18:42:13.369Z,7.62
2018-05-11T18:44:41.493Z,7.50
2018-05-11T18:47:09.613Z,7.43
2018-05-11T18:49:37.843Z,7.78
2018-05-11T18:52:05.998Z,8.10
2018-05-11T18:54:35.451Z,8.23
2018-05-11T18:57:03.043Z,7.65
2018-05-11T18:59:31.170Z,7.32
2018-05-11T19:01:59.329Z,7.50
2018-05-11T19:04:28.206Z,7.15
2018-05-11T19:06:57.096Z,8.10
2018-05-11T19:09:26.081Z,7.75
2018-05-11T19:11:55.701Z,7.03
2018-05-11T19:14:24.579Z,7.45
2018-05-11T19:16:52.686Z,6.85
2018-05-11T19:19:21.569Z,8.80
2018-05-11T19:21:49.691Z,9.50
2018-05-11T19:24:17.816Z,8.43
2018-05-11T19:26:45.948Z,11.05
2018-05-11T19:29:14.092Z,8.23
2018-05-11T19:31:42.969Z,8.75
2018-05-11T19:34:11.112Z,8.40
2018-05-11T19:36:40.418Z,8.68
2018-05-11T19:39:08.544Z,7.97
2018-05-11T19:41:37.449Z,7.55
2018-05-11T19:44:06.372Z,8.43
2018-05-11T19:46:34.543Z,8.80
2018-05-11T19:49:02.658Z,8.05
2018-05-11T19:51:30.984Z,8.68
2018-05-11T19:53:59.897Z,7.45
2018-05-11T19:56:28.004Z,7.82
2018-05-11T19:58:56.118Z,6.80
2018-05-11T20:01:25.007Z,7.32
2018-05-11T20:03:53.158Z,7.28
2018-05-11T20:06:22.214Z,7.12
2018-05-11T20:08:51.411Z,7.43
2018-05-11T20:11:21.100Z,8.00
2018-05-11T20:13:50.004Z,7.80
2018-05-11T20:16:19.825Z,8.07
2018-05-11T20:18:48.723Z,8.30
2018-05-11T20:21:17.602Z,7.93
2018-05-11T20:23:45.730Z,8.55
2018-05-11T20:26:13.847Z,9.77
2018-05-11T20:28:42.045Z,9.98
2018-05-11T20:31:10.935Z,10.98
2018-05-11T20:33:39.055Z,10.85
2018-05-11T20:36:07.183Z,11.80
2018-05-11T20:38:35.313Z,10.02
2018-05-11T20:41:03.432Z,10.07
2018-05-11T20:43:31.592Z,9.85
2018-05-11T20:45:59.693Z,10.30
2018-05-11T20:48:28.594Z,10.23
2018-05-11T20:50:57.487Z,10.77
2018-05-11T20:53:26.419Z,10.02
2018-05-11T20:55:54.545Z,11.85
2018-05-11T20:58:22.669Z,10.18
2018-05-11T21:00:50.868Z,10.80
2018-05-11T21:03:18.966Z,9.85
2018-05-11T21:05:47.097Z,11.48
2018-05-11T21:08:15.217Z,11.60
2018-05-11T21:10:43.345Z,11.10
2018-05-11T21:13:11.449Z,11.05
2018-05-11T21:15:39.567Z,10.77
2018-05-11T21:18:07.690Z,10.27
2018-05-11T21:20:35.828Z,9.82
2018-05-11T21:23:04.091Z,10.10
2018-05-11T21:25:32.212Z,10.43
2018-05-11T21:28:00.331Z,12.88
2018-05-11T21:30:28.461Z,11.55
2018-05-11T21:32:57.336Z,9.80
2018-05-11T21:35:25.466Z,11.27
2018-05-11T21:37:53.589Z,9.63
2018-05-11T21:40:21.705Z,10.82
2018-05-11T21:42:49.819Z,10.68
2018-05-11T21:45:17.955Z,11.38
2018-05-11T21:47:46.064Z,10.30
2018-05-11T21:50:14.186Z,10.25
2018-05-11T21:52:43.057Z,9.45
2018-05-11T21:55:11.173Z,10.32
2018-05-11T21:57:40.043Z,10.27
2018-05-11T22:00:08.947Z,9.43
2018-05-11T22:02:37.830Z,9.48
2018-05-11T22:05:05.945Z,10.30
2018-05-11T22:07:34.061Z,9.43
2018-05-11T22:10:02.182Z,9.52
2018-05-11T22:12:31.067Z,10.45
2018-05-11T22:14:59.974Z,9.65
2018-05-11T22:17:28.843Z,9.43
2018-05-11T22:19:57.745Z,9.48
2018-05-11T22:22:25.866Z,11.95
2018-05-11T22:24:53.966Z,9.20
2018-05-11T22:27:22.095Z,10.25
2018-05-11T22:29:50.222Z,9.95
2018-05-11T22:32:18.350Z,10.38
2018-05-11T22:34:47.236Z,8.88
2018-05-11T22:37:16.140Z,9.30
2018-05-11T22:39:45.052Z,8.40
2018-05-11T22:42:13.231Z,9.50
2018-05-11T22:44:41.361Z,9.55
2018-05-11T22:47:09.495Z,9.70
2018-05-11T22:49:37.631Z,8.98
2018-05-11T22:52:06.505Z,9.15
2018-05-11T22:54:34.608Z,9.18
2018-05-11T22:57:03.485Z,11.00
2018-05-11T22:59:31.617Z,9.32
2018-05-11T23:01:59.736Z,10.20
2018-05-11T23:04:27.845Z,10.20
2018-05-11T23:06:56.737Z,9.98
2018-05-11T23:09:25.690Z,10.25
2018-05-11T23:11:54.502Z,9.60
2018-05-11T23:14:22.603Z,10.57
2018-05-11T23:16:51.505Z,9.57
2018-05-11T23:19:20.380Z,10.55
2018-05-11T23:21:49.305Z,10.75
2018-05-11T23:24:17.405Z,10.27
2018-05-11T23:26:45.538Z,11.63
2018-05-11T23:29:14.427Z,11.38
2018-05-11T23:31:43.312Z,11.95
2018-05-11T23:34:11.425Z,11.55
2018-05-11T23:36:39.539Z,10.48
2018-05-11T23:39:07.651Z,9.48
2018-05-11T23:41:36.524Z,11.73
2018-05-11T23:44:04.648Z,9.90
2018-05-11T23:46:32.781Z,10.70
2018-05-11T23:49:00.881Z,11.50
2018-05-11T23:51:29.764Z,11.30
2018-05-11T23:53:57.970Z,11.20
2018-05-11T23:56:26.097Z,10.90
2018-05-11T23:58:54.217Z,11.12
